sensor_id;sensor_type;location;lat;lon;timestamp;P1;durP1;ratioP1;P2;durP2;ratioP2
41426;SDS011;27171;51.812;19.514;2024-03-06T14:47:12;31.70;;;20.90;;
41426;SDS011;27171;51.812;19.514;2024-03-06T14:50:13;36.90;;;24.40;;
41426;SDS011;27171;51.812;19.514;2024-03-06T14:56:15;31.30;;;21.83;;
41426;SDS011;27171;51.812;19.514;2024-03-06T15:02:17;32.95;;;21.73;;
41426;SDS011;27171;51.812;19.514;2024-03-06T15:08:19;34.95;;;22.60;;
41426;SDS011;27171;51.812;19.514;2024-03-06T15:14:21;37.83;;;24.38;;
41426;SDS011;27171;51.812;19.514;2024-03-06T15:20:23;37.05;;;23.65;;
41426;SDS011;27171;51.812;19.514;2024-03-06T15:23:24;36.83;;;25.40;;
41426;SDS011;27171;51.812;19.514;2024-03-06T15:29:25;36.38;;;23.45;;
41426;SDS011;27171;51.812;19.514;2024-03-06T15:35:27;34.90;;;21.83;;
41426;SDS011;27171;51.812;19.514;2024-03-06T15:41:29;38.45;;;24.50;;
41426;SDS011;27171;51.812;19.514;2024-03-06T15:47:31;33.78;;;21.77;;
41426;SDS011;27171;51.812;19.514;2024-03-06T15:53:32;38.90;;;23.60;;
41426;SDS011;27171;51.812;19.514;2024-03-06T15:59:34;31.20;;;20.33;;
41426;SDS011;27171;51.812;19.514;2024-03-06T16:02:36;30.90;;;21.50;;
41426;SDS011;27171;51.812;19.514;2024-03-06T16:05:38;33.22;;;23.92;;
41426;SDS011;27171;51.812;19.514;2024-03-06T16:08:39;30.77;;;23.45;;
41426;SDS011;27171;51.812;19.514;2024-03-06T16:11:40;31.05;;;22.67;;
41426;SDS011;27171;51.812;19.514;2024-03-06T16:17:42;31.48;;;19.83;;
41426;SDS011;27171;51.812;19.514;2024-03-06T16:20:43;28.65;;;19.73;;
41426;SDS011;27171;51.812;19.514;2024-03-06T16:23:44;29.65;;;21.10;;
41426;SDS011;27171;51.812;19.514;2024-03-06T16:26:45;31.92;;;21.77;;
41426;SDS011;27171;51.812;19.514;2024-03-06T16:32:47;24.83;;;18.75;;
41426;SDS011;27171;51.812;19.514;2024-03-06T16:35:48;27.17;;;19.80;;
41426;SDS011;27171;51.812;19.514;2024-03-06T16:41:50;25.95;;;18.13;;
41426;SDS011;27171;51.812;19.514;2024-03-06T16:47:52;28.17;;;18.80;;
41426;SDS011;27171;51.812;19.514;2024-03-06T16:53:54;30.45;;;20.80;;
41426;SDS011;27171;51.812;19.514;2024-03-06T16:56:55;29.33;;;21.63;;
41426;SDS011;27171;51.812;19.514;2024-03-06T17:02:56;28.77;;;19.52;;
41426;SDS011;27171;51.812;19.514;2024-03-06T17:08:58;28.55;;;19.10;;
41426;SDS011;27171;51.812;19.514;2024-03-06T17:11:59;28.63;;;21.10;;
41426;SDS011;27171;51.812;19.514;2024-03-06T17:18:01;30.95;;;19.50;;
41426;SDS011;27171;51.812;19.514;2024-03-06T17:24:04;21.88;;;14.63;;
41426;SDS011;27171;51.812;19.514;2024-03-06T17:27:05;21.38;;;14.95;;
41426;SDS011;27171;51.812;19.514;2024-03-06T17:33:07;20.23;;;12.50;;
41426;SDS011;27171;51.812;19.514;2024-03-06T17:36:08;18.10;;;12.85;;
41426;SDS011;27171;51.812;19.514;2024-03-06T17:39:09;16.13;;;12.27;;
41426;SDS011;27171;51.812;19.514;2024-03-06T17:45:11;17.45;;;11.63;;
41426;SDS011;27171;51.812;19.514;2024-03-06T17:48:12;17.90;;;11.38;;
41426;SDS011;27171;51.812;19.514;2024-03-06T17:54:14;13.77;;;9.95;;
41426;SDS011;27171;51.812;19.514;2024-03-06T17:57:16;12.30;;;9.15;;
41426;SDS011;27171;51.812;19.514;2024-03-06T18:03:18;15.10;;;10.57;;
41426;SDS011;27171;51.812;19.514;2024-03-06T18:09:20;17.65;;;10.60;;
41426;SDS011;27171;51.812;19.514;2024-03-06T18:15:22;16.42;;;11.15;;
41426;SDS011;27171;51.812;19.514;2024-03-06T18:21:23;15.80;;;10.90;;
41426;SDS011;27171;51.812;19.514;2024-03-06T18:27:26;14.30;;;10.10;;
41426;SDS011;27171;51.812;19.514;2024-03-06T18:30:27;14.68;;;10.48;;
41426;SDS011;27171;51.812;19.514;2024-03-06T18:33:28;17.95;;;11.63;;
41426;SDS011;27171;51.812;19.514;2024-03-06T18:39:30;18.40;;;9.70;;
41426;SDS011;27171;51.812;19.514;2024-03-06T18:42:31;18.75;;;11.65;;
41426;SDS011;27171;51.812;19.514;2024-03-06T18:45:32;18.88;;;12.13;;
41426;SDS011;27171;51.812;19.514;2024-03-06T18:48:33;19.63;;;13.07;;
41426;SDS011;27171;51.812;19.514;2024-03-06T18:54:38;16.17;;;11.57;;
41426;SDS011;27171;51.812;19.514;2024-03-06T18:57:40;19.85;;;12.15;;
41426;SDS011;27171;51.812;19.514;2024-03-06T19:03:42;14.27;;;10.07;;
41426;SDS011;27171;51.812;19.514;2024-03-06T19:06:44;17.70;;;12.05;;
41426;SDS011;27171;51.812;19.514;2024-03-06T19:09:45;17.40;;;11.85;;
41426;SDS011;27171;51.812;19.514;2024-03-06T19:15:47;13.77;;;10.02;;
41426;SDS011;27171;51.812;19.514;2024-03-06T19:21:49;15.48;;;8.90;;
41426;SDS011;27171;51.812;19.514;2024-03-06T19:24:51;13.30;;;9.45;;
41426;SDS011;27171;51.812;19.514;2024-03-06T19:27:52;13.93;;;8.63;;
41426;SDS011;27171;51.812;19.514;2024-03-06T19:30:53;14.18;;;9.13;;
41426;SDS011;27171;51.812;19.514;2024-03-06T19:33:55;13.02;;;8.90;;
41426;SDS011;27171;51.812;19.514;2024-03-06T19:39:57;14.68;;;9.18;;
41426;SDS011;27171;51.812;19.514;2024-03-06T19:42:58;15.90;;;10.10;;
41426;SDS011;27171;51.812;19.514;2024-03-06T19:48:59;13.57;;;8.93;;
41426;SDS011;27171;51.812;19.514;2024-03-06T19:55:01;16.83;;;9.40;;
41426;SDS011;27171;51.812;19.514;2024-03-06T19:58:02;16.55;;;9.45;;
41426;SDS011;27171;51.812;19.514;2024-03-06T20:04:04;14.70;;;8.93;;
41426;SDS011;27171;51.812;19.514;2024-03-06T20:10:06;15.00;;;10.27;;
41426;SDS011;27171;51.812;19.514;2024-03-06T20:13:07;17.13;;;9.93;;
41426;SDS011;27171;51.812;19.514;2024-03-06T20:19:09;18.67;;;9.95;;
41426;SDS011;27171;51.812;19.514;2024-03-06T20:22:10;23.17;;;12.75;;
41426;SDS011;27171;51.812;19.514;2024-03-06T20:28:12;17.77;;;10.93;;
